Time,TemperatureF,DewpointF,PressureIn,WindDirection,WindDirectionDegrees,WindSpeedMPH,WindSpeedGustMPH,Humidity,HourlyPrecipIn,Conditions,Clouds,dailyrainin,SoftwareType,DateUTC
2013-11-28 00:10:00,55.4,42.0,29.85,East,97,0.0,-999.0,62,-99.99,,,0.00,weatherlink.com 1.10,2013-11-28 08:10:00,
2013-11-28 00:25:00,54.1,42.0,29.85,East,97,0.0,-999.0,65,-99.99,,,0.00,weatherlink.com 1.10,2013-11-28 08:25:00,
2013-11-28 00:40:00,52.9,42.0,29.86,East,97,0.0,-999.0,67,-99.99,,,0.00,weatherlink.com 1.10,2013-11-28 08:40:00,
2013-11-28 00:55:00,51.9,42.0,29.85,East,97,0.0,-999.0,70,-99.99,,,0.00,weatherlink.com 1.10,2013-11-28 08:55:00,
2013-11-28 01:10:00,51.1,42.0,29.85,East,97,0.0,-999.0,72,-99.99,,,0.00,weatherlink.com 1.10,2013-11-28 09:10:00,
2013-11-28 01:25:00,50.5,43.0,29.85,East,97,0.0,-999.0,74,-99.99,,,0.00,weatherlink.com 1.10,2013-11-28 09:25:00,
2013-11-28 01:40:00,50.2,43.0,29.85,East,97,0.0,-999.0,75,-99.99,,,0.00,weatherlink.com 1.10,2013-11-28 09:40:00,
2013-11-28 01:55:00,49.8,43.0,29.85,East,97,0.0,-999.0,76,-99.99,,,0.00,weatherlink.com 1.10,2013-11-28 09:55:00,
2013-11-28 02:10:00,49.8,43.0,29.86,East,97,0.0,-999.0,77,-99.99,,,0.00,weatherlink.com 1.10,2013-11-28 10:10:00,
2013-11-28 02:25:00,52.9,40.0,29.85,East,98,0.0,-999.0,62,-99.99,,,0.00,weatherlink.com 1.10,2013-11-28 10:25:00,
2013-11-28 02:41:00,56.0,39.0,29.85,East,88,0.0,-999.0,53,-99.99,,,0.00,weatherlink.com 1.10,2013-11-28 10:41:00,
2013-11-28 02:56:00,57.5,38.0,29.85,NE,55,1.0,-999.0,49,-99.99,,,0.00,weatherlink.com 1.10,2013-11-28 10:56:00,
2013-11-28 03:11:00,58.1,38.0,29.85,ENE,69,1.0,-999.0,48,-99.99,,,0.00,weatherlink.com 1.10,2013-11-28 11:11:00,
2013-11-28 03:26:00,57.8,38.0,29.85,SE,144,0.0,-999.0,48,-99.99,,,0.00,weatherlink.com 1.10,2013-11-28 11:26:00,
2013-11-28 03:41:00,57.3,38.0,29.85,SE,138,0.0,-999.0,48,-99.99,,,0.00,weatherlink.com 1.10,2013-11-28 11:41:00,
2013-11-28 03:56:00,57.6,38.0,29.85,East,88,2.0,-999.0,48,-99.99,,,0.00,weatherlink.com 1.10,2013-11-28 11:56:00,
2013-11-28 04:11:00,57.8,37.0,29.84,East,89,0.0,-999.0,47,-99.99,,,0.00,weatherlink.com 1.10,2013-11-28 12:11:00,
2013-11-28 04:26:00,58.1,37.0,29.85,ESE,115,0.0,-999.0,46,-99.99,,,0.00,weatherlink.com 1.10,2013-11-28 12:26:00,
2013-11-28 04:41:00,58.4,37.0,29.85,ENE,62,0.0,-999.0,46,-99.99,,,0.00,weatherlink.com 1.10,2013-11-28 12:41:00,
2013-11-28 04:56:00,58.4,37.0,29.85,ENE,70,1.0,-999.0,45,-99.99,,,0.00,weatherlink.com 1.10,2013-11-28 12:56:00,
2013-11-28 05:11:00,58.3,37.0,29.86,ESE,121,2.0,-999.0,45,-99.99,,,0.00,weatherlink.com 1.10,2013-11-28 13:11:00,
2013-11-28 05:26:00,58.7,37.0,29.86,East,98,4.0,-999.0,44,-99.99,,,0.00,weatherlink.com 1.10,2013-11-28 13:26:00,
2013-11-28 05:41:00,59.2,36.0,29.86,SE,146,0.0,-999.0,43,-99.99,,,0.00,weatherlink.com 1.10,2013-11-28 13:41:00,
2013-11-28 05:56:00,58.0,40.0,29.87,SW,230,0.0,-999.0,52,-99.99,,,0.00,weatherlink.com 1.10,2013-11-28 13:56:00,
2013-11-28 06:11:00,56.2,40.0,29.87,SW,230,0.0,-999.0,56,-99.99,,,0.00,weatherlink.com 1.10,2013-11-28 14:11:00,
2013-11-28 06:26:00,54.8,41.0,29.88,SW,230,0.0,-999.0,60,-99.99,,,0.00,weatherlink.com 1.10,2013-11-28 14:26:00,
2013-11-28 06:41:00,54.7,37.0,29.87,SW,227,2.0,-999.0,52,-99.99,,,0.00,weatherlink.com 1.10,2013-11-28 14:41:00,
2013-11-28 06:56:00,56.3,37.0,29.87,SSE,161,0.0,-999.0,49,-99.99,,,0.00,weatherlink.com 1.10,2013-11-28 14:56:00,
2013-11-28 07:11:00,55.6,40.0,29.88,NE,53,0.0,-999.0,57,-99.99,,,0.00,weatherlink.com 1.10,2013-11-28 15:11:00,
2013-11-28 07:26:00,55.7,40.0,29.88,WSW,244,0.0,-999.0,56,-99.99,,,0.00,weatherlink.com 1.10,2013-11-28 15:26:00,
2013-11-28 07:41:00,54.7,41.0,29.89,WSW,244,0.0,-999.0,60,-99.99,,,0.00,weatherlink.com 1.10,2013-11-28 15:41:00,
2013-11-28 07:56:00,53.9,41.0,29.89,WSW,244,0.0,-999.0,63,-99.99,,,0.00,weatherlink.com 1.10,2013-11-28 15:56:00,
2013-11-28 08:11:00,53.9,42.0,29.89,WSW,244,0.0,-999.0,65,-99.99,,,0.00,weatherlink.com 1.10,2013-11-28 16:11:00,
2013-11-28 08:26:00,54.2,43.0,29.90,WSW,244,1.0,-999.0,66,-99.99,,,0.00,weatherlink.com 1.10,2013-11-28 16:26:00,
2013-11-28 08:41:00,54.1,43.0,29.90,WSW,244,0.0,-999.0,67,-99.99,,,0.00,weatherlink.com 1.10,2013-11-28 16:41:00,
2013-11-28 08:56:00,55.0,45.0,29.92,SW,232,0.0,-999.0,68,-99.99,,,0.00,weatherlink.com 1.10,2013-11-28 16:56:00,
2013-11-28 09:11:00,56.2,44.0,29.92,SW,232,0.0,-999.0,64,-99.99,,,0.00,weatherlink.com 1.10,2013-11-28 17:11:00,
2013-11-28 09:26:00,57.0,43.0,29.92,SW,232,0.0,-999.0,61,-99.99,,,0.00,weatherlink.com 1.10,2013-11-28 17:26:00,
2013-11-28 09:41:00,58.9,44.0,29.93,SW,232,0.0,-999.0,59,-99.99,,,0.00,weatherlink.com 1.10,2013-11-28 17:41:00,
2013-11-28 09:56:00,60.9,44.0,29.93,SW,232,0.0,-999.0,55,-99.99,,,0.00,weatherlink.com 1.10,2013-11-28 17:56:00,
2013-11-28 10:11:00,62.6,45.0,29.93,SW,232,0.0,-999.0,52,-99.99,,,0.00,weatherlink.com 1.10,2013-11-28 18:11:00,
2013-11-28 10:26:00,63.9,46.0,29.93,SW,232,0.0,-999.0,52,-99.99,,,0.00,weatherlink.com 1.10,2013-11-28 18:26:00,
2013-11-28 10:41:00,64.5,44.0,29.93,SW,232,0.0,-999.0,48,-99.99,,,0.00,weatherlink.com 1.10,2013-11-28 18:41:00,
2013-11-28 10:56:00,64.8,44.0,29.95,West,261,0.0,-999.0,48,-99.99,,,0.00,weatherlink.com 1.10,2013-11-28 18:56:00,
2013-11-28 11:11:00,65.0,44.0,29.94,SW,232,0.0,-999.0,47,-99.99,,,0.00,weatherlink.com 1.10,2013-11-28 19:11:00,
2013-11-28 11:26:00,66.0,44.0,29.93,SW,235,0.0,-999.0,45,-99.99,,,0.00,weatherlink.com 1.10,2013-11-28 19:26:00,
2013-11-28 11:42:00,67.9,38.0,29.93,East,98,0.0,-999.0,33,-99.99,,,0.00,weatherlink.com 1.10,2013-11-28 19:42:00,
2013-11-28 11:57:00,69.6,36.0,29.92,ESE,109,0.0,-999.0,29,-99.99,,,0.00,weatherlink.com 1.10,2013-11-28 19:57:00,
2013-11-28 12:11:00,70.3,36.0,29.92,ENE,57,2.0,-999.0,29,-99.99,,,0.00,weatherlink.com 1.10,2013-11-28 20:11:00,
2013-11-28 12:26:00,69.8,44.0,29.92,SSW,210,0.0,-999.0,39,-99.99,,,0.00,weatherlink.com 1.10,2013-11-28 20:26:00,
2013-11-28 12:41:00,67.3,43.0,29.92,SSW,204,0.0,-999.0,42,-99.99,,,0.00,weatherlink.com 1.10,2013-11-28 20:41:00,
2013-11-28 12:56:00,66.4,43.0,29.92,SSW,205,0.0,-999.0,43,-99.99,,,0.00,weatherlink.com 1.10,2013-11-28 20:56:00,
2013-11-28 13:11:00,67.1,44.0,29.93,SSE,155,0.0,-999.0,43,-99.99,,,0.00,weatherlink.com 1.10,2013-11-28 21:11:00,
2013-11-28 13:26:00,67.8,44.0,29.92,SSE,155,0.0,-999.0,42,-99.99,,,0.00,weatherlink.com 1.10,2013-11-28 21:26:00,
2013-11-28 13:41:00,67.8,44.0,29.92,SW,233,0.0,-999.0,42,-99.99,,,0.00,weatherlink.com 1.10,2013-11-28 21:41:00,
2013-11-28 13:56:00,68.4,42.0,29.92,SW,227,0.0,-999.0,39,-99.99,,,0.00,weatherlink.com 1.10,2013-11-28 21:56:00,
2013-11-28 14:12:00,68.9,43.0,29.92,SW,226,0.0,-999.0,39,-99.99,,,0.00,weatherlink.com 1.10,2013-11-28 22:12:00,
2013-11-28 14:27:00,69.9,42.0,29.92,SW,227,0.0,-999.0,37,-99.99,,,0.00,weatherlink.com 1.10,2013-11-28 22:27:00,
2013-11-28 14:42:00,70.6,42.0,29.92,SW,226,0.0,-999.0,36,-99.99,,,0.00,weatherlink.com 1.10,2013-11-28 22:42:00,
2013-11-28 14:57:00,69.8,42.0,29.93,SW,226,0.0,-999.0,36,-99.99,,,0.00,weatherlink.com 1.10,2013-11-28 22:57:00,
2013-11-28 15:12:00,69.4,41.0,29.93,SW,226,0.0,-999.0,35,-99.99,,,0.00,weatherlink.com 1.10,2013-11-28 23:12:00,
2013-11-28 15:27:00,68.1,39.0,29.93,WSW,237,0.0,-999.0,35,-99.99,,,0.00,weatherlink.com 1.10,2013-11-28 23:27:00,
2013-11-28 15:42:00,65.5,44.0,29.95,WSW,237,0.0,-999.0,46,-99.99,,,0.00,weatherlink.com 1.10,2013-11-28 23:42:00,
2013-11-28 15:58:00,64.0,44.0,29.95,WSW,237,0.0,-999.0,49,-99.99,,,0.00,weatherlink.com 1.10,2013-11-28 23:58:00,
2013-11-28 16:12:00,63.1,43.0,29.95,WSW,237,0.0,-999.0,49,-99.99,,,0.00,weatherlink.com 1.10,2013-11-29 00:12:00,
2013-11-28 16:27:00,62.4,44.0,29.95,WSW,237,0.0,-999.0,51,-99.99,,,0.00,weatherlink.com 1.10,2013-11-29 00:27:00,
2013-11-28 16:42:00,61.5,44.0,29.96,WSW,237,0.0,-999.0,53,-99.99,,,0.00,weatherlink.com 1.10,2013-11-29 00:42:00,
2013-11-28 16:57:00,60.2,44.0,29.96,WSW,237,0.0,-999.0,56,-99.99,,,0.00,weatherlink.com 1.10,2013-11-29 00:57:00,
2013-11-28 17:13:00,58.9,45.0,29.96,WSW,237,0.0,-999.0,60,-99.99,,,0.00,weatherlink.com 1.10,2013-11-29 01:13:00,
2013-11-28 17:28:00,57.8,45.0,29.97,WSW,237,0.0,-999.0,62,-99.99,,,0.00,weatherlink.com 1.10,2013-11-29 01:28:00,
2013-11-28 17:42:00,56.7,45.0,29.98,WSW,237,0.0,-999.0,64,-99.99,,,0.00,weatherlink.com 1.10,2013-11-29 01:42:00,
2013-11-28 17:57:00,55.9,45.0,29.98,WSW,237,0.0,-999.0,66,-99.99,,,0.00,weatherlink.com 1.10,2013-11-29 01:57:00,
2013-11-28 18:13:00,55.1,44.0,29.98,WSW,237,0.0,-999.0,67,-99.99,,,0.00,weatherlink.com 1.10,2013-11-29 02:13:00,
2013-11-28 18:28:00,54.7,44.0,29.98,WSW,237,0.0,-999.0,67,-99.99,,,0.00,weatherlink.com 1.10,2013-11-29 02:28:00,
2013-11-28 18:43:00,54.4,43.0,29.99,WSW,237,0.0,-999.0,66,-99.99,,,0.00,weatherlink.com 1.10,2013-11-29 02:43:00,
2013-11-28 18:58:00,54.1,43.0,29.99,WSW,237,0.0,-999.0,66,-99.99,,,0.00,weatherlink.com 1.10,2013-11-29 02:58:00,
2013-11-28 19:13:00,54.4,43.0,30.00,WSW,237,0.0,-999.0,65,-99.99,,,0.00,weatherlink.com 1.10,2013-11-29 03:13:00,
2013-11-28 19:28:00,54.1,42.0,30.00,WSW,237,0.0,-999.0,65,-99.99,,,0.00,weatherlink.com 1.10,2013-11-29 03:28:00,
2013-11-28 19:43:00,54.1,42.0,30.01,SW,236,0.0,-999.0,65,-99.99,,,0.00,weatherlink.com 1.10,2013-11-29 03:43:00,
2013-11-28 19:59:00,54.2,42.0,30.01,SW,236,0.0,-999.0,64,-99.99,,,0.00,weatherlink.com 1.10,2013-11-29 03:59:00,
2013-11-28 20:13:00,53.9,42.0,30.02,SW,236,0.0,-999.0,64,-99.99,,,0.00,weatherlink.com 1.10,2013-11-29 04:13:00,
2013-11-28 20:28:00,53.9,41.0,30.02,SW,236,0.0,-999.0,63,-99.99,,,0.00,weatherlink.com 1.10,2013-11-29 04:28:00,
2013-11-28 20:44:00,54.2,40.0,30.03,SW,236,0.0,-999.0,59,-99.99,,,0.00,weatherlink.com 1.10,2013-11-29 04:44:00,
2013-11-28 20:59:00,54.4,40.0,30.03,SW,236,0.0,-999.0,58,-99.99,,,0.00,weatherlink.com 1.10,2013-11-29 04:59:00,
2013-11-28 21:13:00,54.4,39.0,30.03,SW,236,0.0,-999.0,56,-99.99,,,0.00,weatherlink.com 1.10,2013-11-29 05:13:00,
2013-11-28 21:28:00,54.5,38.0,30.04,SW,236,0.0,-999.0,55,-99.99,,,0.00,weatherlink.com 1.10,2013-11-29 05:28:00,
2013-11-28 21:43:00,54.7,39.0,30.04,SW,236,0.0,-999.0,55,-99.99,,,0.00,weatherlink.com 1.10,2013-11-29 05:43:00,
2013-11-28 21:58:00,54.1,39.0,30.04,SW,236,0.0,-999.0,57,-99.99,,,0.00,weatherlink.com 1.10,2013-11-29 05:58:00,
2013-11-28 22:13:00,53.5,39.0,30.04,SW,236,0.0,-999.0,59,-99.99,,,0.00,weatherlink.com 1.10,2013-11-29 06:13:00,
2013-11-28 22:28:00,52.9,40.0,30.04,SW,236,0.0,-999.0,61,-99.99,,,0.00,weatherlink.com 1.10,2013-11-29 06:28:00,
2013-11-28 22:43:00,52.3,40.0,30.05,SW,236,0.0,-999.0,63,-99.99,,,0.00,weatherlink.com 1.10,2013-11-29 06:43:00,
2013-11-28 22:59:00,51.6,40.0,30.05,SW,236,0.0,-999.0,64,-99.99,,,0.00,weatherlink.com 1.10,2013-11-29 06:59:00,
2013-11-28 23:14:00,51.0,40.0,30.06,SW,236,0.0,-999.0,66,-99.99,,,0.00,weatherlink.com 1.10,2013-11-29 07:14:00,
2013-11-28 23:29:00,50.4,40.0,30.05,SW,236,0.0,-999.0,68,-99.99,,,0.00,weatherlink.com 1.10,2013-11-29 07:29:00,
2013-11-28 23:44:00,50.1,40.0,30.06,SW,236,0.0,-999.0,68,-99.99,,,0.00,weatherlink.com 1.10,2013-11-29 07:44:00,
2013-11-28 23:59:00,49.8,40.0,30.06,SW,236,0.0,-999.0,68,-99.99,,,0.00,weatherlink.com 1.10,2013-11-29 07:59:00,